Lavon, Texas
Current Conditions -  °F | °C
As of 1:35 AM on Thursday 23 Oct 2014 (Local Time) from KF46 Reporting Station
Clear Clear  
Wind Chill: 65°   Ceiling: Unl
Heat Index: 65°   Visibility: 10mi
Dew Point: 53°   Wind: 5mph
Humidity: 64%   Direction: 130°SE
Pressure: 30.11"   Gusts: NA
Location:  33.03°N, 96.43°W
Report Text: KF46 230635Z AUTO 13004KT 10SM CLR 18/12 A3011 RMK AO2 T01840115
Loading
Personal Weather Stations






























Interactive Weather Map
Tropical Storm Tracking
New forecast layout! Learn more

10-Day Weather Forecast

Advertisements
Track Severe Weather on mobile